OPLA/LHE METAR and TAF weather

Enter ICAO airport designator
Station Type Date Time Source
OPLA METAR 2019/10/15 18:55 UTC NOAA

OPLA 151855Z 04002KT 4000 FU NSC 26/19 Q1015 NOSIG RMK QFE989 RMK A29.94


Station Type Date Time Source
OPLA Decoded METAR 2019/10/15 18:55 UTC NOAA

Lahore Airport, Pakistan (OPLA) 31-31N 074-24E 217M
Oct 15, 2019 - 02:55 PM EDT / 2019.10.15 1855 UTC
Wind: from the NE (040 degrees) at 2 MPH (2 KT):0
Visibility: 2 mile(s):0
Weather: smoke
Temperature: 78 F (26 C)
Dew Point: 66 F (19 C)
Relative Humidity: 65%
Pressure (altimeter): 29.97 in. Hg (1015 hPa)
ob: OPLA 151855Z 04002KT 4000 FU NSC 26/19 Q1015 NOSIG RMK QFE989 RMK A29.94
cycle: 19

Station Type Date Time Source
OPLA TAF 2019/10/15 18:09 UTC NOAA

TAF TAF OPLA 151545Z 1518/1624 13005KT 4000 FU NSC TX34/1610Z TN22/1600Z TN20/1624Z
BECMG 1523/1604 10005KT 2000 FU
BECMG 1606/1612 10005KT 4000 HZ NSC

Example: see airport list